Time;durP1;ratioP1;P1;durP2;ratioP2;P2;SDS_P1;SDS_P2;PMS_P1;PMS_P2;Temp;Humidity;BMP_temperature;BMP_pressure;BME280_temperature;BME280_humidity;BME280_pressure;Samples;Min_cycle;Max_cycle;Signal;HPM_P1;HPM_P2
2022/03/01 00:02:05;;;;;;;24.38;14.70;;;;;;;5.61;52.88;102753.78;7390896;19;20010;-63
2022/03/01 00:04:34;;;;;;;23.52;14.77;;;;;;;5.64;53.85;102746.00;7392952;19;20014;-61
2022/03/01 00:07:07;;;;;;;22.63;14.80;;;;;;;5.62;52.41;102747.72;7390768;19;20014;-65
2022/03/01 00:09:36;;;;;;;;;;;;;;;5.61;51.91;102742.50;7392908;19;20028;-63
2022/03/01 00:12:06;;;;;;;23.50;14.10;;;;;;;5.51;52.14;102751.97;7390316;19;19927;-63
2022/03/01 00:14:36;;;;;;;21.25;14.77;;;;;;;5.59;52.32;102757.22;7392454;19;20122;-63
2022/03/01 00:17:05;;;;;;;21.48;14.10;;;;;;;5.55;52.56;102753.75;7390064;19;20025;-63
2022/03/01 00:19:34;;;;;;;20.25;13.63;;;;;;;5.58;52.57;102750.31;7389947;19;20533;-62
2022/03/01 00:22:06;;;;;;;21.65;14.18;;;;;;;5.64;51.72;102745.13;7390972;19;20006;-63
2022/03/01 00:24:35;;;;;;;22.17;14.40;;;;;;;5.70;52.30;102760.78;7393020;19;20479;-64
2022/03/01 00:27:04;;;;;;;23.38;14.13;;;;;;;5.60;51.41;102749.47;7393186;19;20074;-63
2022/03/01 00:29:33;;;;;;;24.13;15.52;;;;;;;5.64;51.83;102758.13;7389297;19;20486;-63
2022/03/01 00:32:02;;;;;;;21.30;14.25;;;;;;;5.52;51.78;102758.91;7394255;19;20014;-64
2022/03/01 00:34:31;;;;;;;22.58;14.40;;;;;;;5.51;51.34;102760.63;7391223;19;20018;-64
2022/03/01 00:37:00;;;;;;;21.08;14.30;;;;;;;5.50;51.91;102760.63;7395458;19;20026;-65
2022/03/01 00:39:32;;;;;;;21.38;14.68;;;;;;;5.65;51.90;102760.75;7392472;19;20023;-65
2022/03/01 00:42:01;;;;;;;21.90;13.88;;;;;;;5.71;52.28;102762.53;7393179;19;20029;-64
2022/03/01 00:44:29;;;;;;;19.30;13.25;;;;;;;5.83;51.95;102761.72;7393280;19;20025;-64
2022/03/01 00:46:58;;;;;;;22.05;14.63;;;;;;;5.74;52.01;102764.28;7392509;19;20013;-63
2022/03/01 00:49:27;;;;;;;21.50;14.00;;;;;;;5.73;51.84;102766.00;7392864;19;20362;-64
2022/03/01 00:51:56;;;;;;;21.98;13.95;;;;;;;5.71;53.06;102758.19;7397190;19;20022;-64
2022/03/01 00:54:25;;;;;;;22.85;14.25;;;;;;;5.78;52.54;102761.72;7392398;19;20011;-63
2022/03/01 00:56:56;;;;;;;23.55;14.27;;;;;;;5.72;52.68;102756.47;7392443;19;20031;-63
2022/03/01 00:59:26;;;;;;;24.63;14.52;;;;;;;5.66;51.97;102752.09;7392669;19;20015;-64
2022/03/01 01:01:54;;;;;;;23.33;14.35;;;;;;;5.38;52.08;102751.84;7397657;19;20463;-63
2022/03/01 01:04:23;;;;;;;20.75;14.35;;;;;;;5.40;52.54;102738.00;7394210;19;20021;-64
2022/03/01 01:06:52;;;;;;;23.17;14.52;;;;;;;5.34;52.73;102738.81;7396435;19;20010;-64
2022/03/01 01:09:21;;;;;;;24.33;14.57;;;;;;;5.09;53.58;102737.75;7395326;19;20017;-64
2022/03/01 01:11:50;;;;;;;22.88;15.20;;;;;;;5.08;53.67;102741.19;7397253;19;20033;-64
2022/03/01 01:14:22;;;;;;;21.50;14.43;;;;;;;5.12;53.82;102736.03;7401394;19;20006;-64
2022/03/01 01:16:51;;;;;;;22.95;14.88;;;;;;;5.20;54.91;102725.69;7398863;19;20019;-64
2022/03/01 01:19:20;;;;;;;24.92;14.95;;;;;;;5.03;54.05;102726.44;7396341;19;20494;-63
2022/03/01 01:24:30;;;;;;;23.23;14.93;;;;;;;5.10;53.35;102729.06;7398458;19;20675;-64
2022/03/01 01:26:59;;;;;;;24.70;14.93;;;;;;;5.01;53.63;102733.34;7399579;19;20451;-64
2022/03/01 01:29:31;;;;;;;27.30;15.20;;;;;;;5.10;53.45;102734.28;7396535;19;20103;-64
2022/03/01 01:32:00;;;;;;;25.73;15.25;;;;;;;5.13;53.56;102740.38;7397806;19;20013;-64
2022/03/01 01:34:28;;;;;;;24.13;14.98;;;;;;;5.01;53.94;102740.25;7397653;19;20018;-63
2022/03/01 01:36:58;;;;;;;27.70;15.85;;;;;;;5.05;55.30;102739.44;7395191;19;20010;-64
2022/03/01 01:39:27;;;;;;;25.80;15.52;;;;;;;5.11;55.05;102743.81;7393796;19;20454;-64
2022/03/01 01:41:55;;;;;;;22.17;14.82;;;;;;;5.10;55.19;102744.66;7395902;19;20015;-64
2022/03/01 01:44:24;;;;;;;21.95;14.13;;;;;;;5.14;54.59;102752.53;7395820;19;20015;-62
2022/03/01 01:46:56;;;;;;;24.77;15.38;;;;;;;5.13;53.51;102747.28;7396849;19;20014;-64
2022/03/01 01:49:25;;;;;;;21.25;14.38;;;;;;;5.13;55.11;102747.28;7392992;19;20340;-63
2022/03/01 01:51:54;;;;;;;25.30;15.27;;;;;;;5.16;54.82;102742.16;7395384;19;20006;-63
2022/03/01 01:54:23;;;;;;;23.58;14.45;;;;;;;5.17;55.57;102746.47;7394432;19;20025;-63
2022/03/01 01:56:52;;;;;;;23.05;14.65;;;;;;;5.22;55.41;102744.78;7399121;19;20087;-64
2022/03/01 01:59:21;;;;;;;24.83;16.52;;;;;;;5.23;55.78;102743.06;7392495;19;20014;-64
2022/03/01 02:01:49;;;;;;;24.98;15.40;;;;;;;5.14;55.10;102742.13;7395915;19;20363;-64
2022/03/01 02:04:21;;;;;;;22.38;14.52;;;;;;;5.27;55.24;102739.63;7395237;19;20289;-64
2022/03/01 02:06:54;;;;;;;25.90;15.75;;;;;;;5.06;54.32;102742.88;7395802;19;20040;-63
2022/03/01 02:09:23;;;;;;;25.50;14.93;;;;;;;5.15;54.83;102743.84;7394472;19;20014;-63
2022/03/01 02:11:53;;;;;;;25.30;16.02;;;;;;;5.11;55.53;102739.47;7398901;19;20467;-64
2022/03/01 02:14:22;;;;;;;23.55;15.23;;;;;;;5.11;55.35;102730.81;7396090;19;20018;-63
2022/03/01 02:16:51;;;;;;;25.65;16.13;;;;;;;5.15;55.46;102737.78;7394725;19;20007;-63
2022/03/01 02:19:22;;;;;;;27.25;15.90;;;;;;;5.19;55.00;102735.22;7394298;19;20018;-63
2022/03/01 02:21:56;;;;;;;24.42;15.30;;;;;;;5.00;54.89;102738.50;7397989;19;20499;-63
2022/03/01 02:24:27;;;;;;;25.25;15.57;;;;;;;4.94;55.81;102741.94;7392103;19;20014;-64
2022/03/01 02:26:57;;;;;;;23.60;15.88;;;;;;;4.87;55.87;102741.84;7393429;19;20022;-64
2022/03/01 02:29:28;;;;;;;26.52;15.70;;;;;;;4.90;55.35;102739.28;7392586;19;20020;-64
2022/03/01 02:32:01;;;;;;;24.88;15.43;;;;;;;4.91;55.34;102743.63;7396827;19;20467;-64
2022/03/01 02:34:30;;;;;;;25.35;15.82;;;;;;;4.75;56.10;102740.00;7393868;19;20025;-63
2022/03/01 02:37:01;;;;;;;23.70;15.48;;;;;;;4.79;56.25;102729.63;7398180;19;20014;-64
2022/03/01 02:39:30;;;;;;;24.30;15.82;;;;;;;4.77;55.40;102743.47;7390881;19;20021;-63
2022/03/01 02:41:59;;;;;;;27.05;18.10;;;;;;;4.76;56.30;102737.41;7393447;19;20014;-64
2022/03/01 02:44:28;;;;;;;26.55;17.25;;;;;;;4.78;56.27;102734.81;7394379;19;20015;-63
2022/03/01 02:46:57;;;;;;;25.27;15.80;;;;;;;4.84;56.71;102734.88;7393386;19;20301;-62
2022/03/01 02:49:26;;;;;;;26.63;16.25;;;;;;;4.82;57.85;102729.66;7390639;19;20018;-63
2022/03/01 02:51:55;;;;;;;24.92;16.85;;;;;;;4.80;57.77;102728.81;7395649;19;20364;-64
2022/03/01 02:54:27;;;;;;;23.58;16.15;;;;;;;4.89;57.30;102737.56;7393887;19;20119;-65
2022/03/01 02:56:59;;;;;;;23.50;15.40;;;;;;;4.71;57.33;102738.22;7393772;19;20021;-64
2022/03/01 02:59:28;;;;;;;24.13;16.27;;;;;;;4.63;57.46;102732.94;7390730;19;20011;-64
2022/03/01 03:01:57;;;;;;;25.88;16.27;;;;;;;4.66;58.28;102726.03;7394335;19;20518;-64
2022/03/01 03:04:27;;;;;;;24.52;15.70;;;;;;;4.74;58.60;102720.06;7393130;19;20025;-64
2022/03/01 03:06:56;;;;;;;23.70;15.65;;;;;;;4.87;58.10;102723.66;7394221;19;20018;-64
2022/03/01 03:09:27;;;;;;;26.05;17.48;;;;;;;4.81;58.63;102722.75;7389134;19;20006;-64
2022/03/01 03:11:57;;;;;;;25.10;15.45;;;;;;;4.73;58.07;102716.59;7392278;19;20015;-64
2022/03/01 03:14:26;;;;;;;26.77;16.60;;;;;;;4.60;57.92;102713.00;7394662;19;20466;-64
2022/03/01 03:16:54;;;;;;;26.65;16.40;;;;;;;4.56;58.20;102707.75;7391364;19;20022;-64
2022/03/01 03:19:24;;;;;;;27.52;16.73;;;;;;;4.53;58.79;102705.09;7389229;19;20090;-64
2022/03/01 03:21:53;;;;;;;24.30;15.93;;;;;;;4.59;59.35;102702.59;7392157;19;20018;-64
2022/03/01 03:24:22;;;;;;;24.48;15.90;;;;;;;4.70;59.00;102700.09;7392063;19;20018;-64
2022/03/01 03:26:54;;;;;;;26.60;17.13;;;;;;;4.83;59.02;102709.78;7393145;19;20071;-67
2022/03/01 03:29:23;;;;;;;26.35;17.02;;;;;;;4.63;58.62;102702.66;7390610;19;20025;-64
2022/03/01 03:31:56;;;;;;;24.40;16.00;;;;;;;4.58;58.66;102706.91;7394703;19;20030;-64
2022/03/01 03:34:26;;;;;;;26.27;16.50;;;;;;;4.55;58.12;102704.28;7391619;19;20010;-62
2022/03/01 03:36:55;;;;;;;23.92;15.98;;;;;;;4.57;59.31;102710.38;7394159;19;20014;-62
2022/03/01 03:39:25;;;;;;;25.92;16.77;;;;;;;4.59;58.96;102700.88;7391034;19;20057;-63
2022/03/01 03:41:56;;;;;;;25.85;17.20;;;;;;;4.60;60.07;102701.72;7394368;19;20011;-62
2022/03/01 03:44:25;;;;;;;25.77;16.00;;;;;;;4.65;59.78;102702.66;7393420;19;20014;-62
2022/03/01 03:46:54;;;;;;;26.42;16.90;;;;;;;4.75;59.86;102701.03;7395085;19;20014;-63
2022/03/01 03:49:24;;;;;;;25.48;16.67;;;;;;;4.88;59.09;102702.88;7390859;19;20011;-63
2022/03/01 03:51:53;;;;;;;26.77;17.25;;;;;;;4.77;59.99;102704.50;7390205;19;20021;-63
2022/03/01 03:54:22;;;;;;;27.90;16.48;;;;;;;4.64;59.12;102713.88;7391108;19;20033;-63
2022/03/01 03:56:51;;;;;;;25.55;16.50;;;;;;;4.67;59.57;102703.53;7390273;19;20025;-63
2022/03/01 03:59:22;;;;;;;25.55;16.25;;;;;;;4.81;59.34;102703.69;7389673;19;20460;-63
2022/03/01 04:01:51;;;;;;;24.27;16.17;;;;;;;4.77;59.08;102704.50;7392394;19;20010;-63
2022/03/01 04:04:20;;;;;;;26.42;16.83;;;;;;;4.68;59.29;102710.47;7392037;19;20014;-63
2022/03/01 04:06:49;;;;;;;26.13;17.35;;;;;;;4.62;59.79;102700.88;7391425;19;20017;-63
2022/03/01 04:09:18;;;;;;;27.52;17.45;;;;;;;4.73;59.55;102702.72;7389374;19;20037;-62
2022/03/01 04:11:47;;;;;;;29.90;16.77;;;;;;;4.71;58.81;102707.91;7389880;19;20014;-63
2022/03/01 04:14:17;;;;;;;25.60;16.88;;;;;;;4.57;59.77;102699.09;7392760;19;20010;-64
2022/03/01 04:16:49;;;;;;;28.60;17.15;;;;;;;4.55;60.46;102706.00;7392319;19;20561;-62
2022/03/01 04:19:19;;;;;;;30.17;17.17;;;;;;;4.64;60.25;102706.09;7386885;19;20014;-62
2022/03/01 04:21:48;;;;;;;25.45;16.25;;;;;;;4.74;58.95;102701.88;7389413;19;20018;-63
2022/03/01 04:24:17;;;;;;;26.88;16.10;;;;;;;4.66;57.87;102704.41;7389178;19;20018;-63
2022/03/01 04:26:46;;;;;;;27.70;15.98;;;;;;;4.66;57.59;102707.00;7390439;19;20021;-64
2022/03/01 04:29:15;;;;;;;26.70;16.50;;;;;;;4.65;57.63;102707.84;7387043;19;20481;-63
2022/03/01 04:31:44;;;;;;;24.65;15.75;;;;;;;4.48;58.78;102707.66;7393094;19;20017;-63
2022/03/01 04:34:15;;;;;;;27.27;16.52;;;;;;;4.43;59.23;102711.94;7389896;19;20037;-63
2022/03/01 04:36:44;;;;;;;25.63;16.67;;;;;;;4.40;58.73;102710.19;7390320;19;20124;-64
2022/03/01 04:39:13;;;;;;;23.25;15.75;;;;;;;4.46;58.81;102709.38;7386807;19;20021;-63
2022/03/01 04:41:43;;;;;;;26.05;16.35;;;;;;;4.56;58.44;102707.75;7389684;19;20002;-63
2022/03/01 04:44:12;;;;;;;24.80;16.60;;;;;;;4.48;59.51;102705.06;7388332;19;20126;-63
2022/03/01 04:46:41;;;;;;;27.48;17.90;;;;;;;4.45;60.22;102716.28;7391577;19;20026;-63
2022/03/01 04:49:10;;;;;;;26.58;16.80;;;;;;;4.40;60.33;102712.78;7389979;19;20078;-64
2022/03/01 04:51:41;;;;;;;25.33;16.55;;;;;;;4.41;60.10;102701.50;7388774;19;20447;-63
2022/03/01 04:54:11;;;;;;;26.90;17.27;;;;;;;4.29;60.77;102714.34;7391898;19;20017;-63
2022/03/01 04:56:39;;;;;;;25.35;16.73;;;;;;;4.31;60.39;102716.13;7389530;19;20021;-63
2022/03/01 04:59:09;;;;;;;26.25;16.67;;;;;;;4.30;61.25;102719.56;7388256;19;20018;-63
2022/03/01 05:01:38;;;;;;;28.13;16.50;;;;;;;4.39;60.76;102724.00;7392691;19;20017;-61
2022/03/01 05:04:07;;;;;;;27.65;17.13;;;;;;;4.38;60.22;102714.47;7389140;19;20048;-63
2022/03/01 05:06:36;;;;;;;24.30;16.50;;;;;;;4.47;59.60;102709.38;7389039;19;20015;-64
2022/03/01 05:09:08;;;;;;;25.73;16.45;;;;;;;4.29;58.52;102706.56;7388168;19;20015;-62
2022/03/01 05:11:38;;;;;;;25.63;16.17;;;;;;;4.23;57.90;102698.72;7389412;19;20094;-64
2022/03/01 05:14:08;;;;;;;28.13;16.65;;;;;;;4.19;58.49;102702.97;7392464;19;20039;-63
2022/03/01 05:16:37;;;;;;;26.88;17.08;;;;;;;4.38;58.47;102696.28;7387552;19;20447;-65
2022/03/01 05:19:07;;;;;;;27.40;17.02;;;;;;;4.39;58.74;102687.66;7386839;19;20014;-63
2022/03/01 05:21:35;;;;;;;27.20;16.63;;;;;;;4.27;57.88;102696.19;7388416;19;20021;-64
2022/03/01 05:24:05;;;;;;;26.55;16.65;;;;;;;4.29;58.22;102693.59;7389547;19;20017;-62
2022/03/01 05:26:36;;;;;;;31.73;18.48;;;;;;;4.36;58.65;102700.59;7391442;19;20011;-65
2022/03/01 05:29:07;;;;;;;27.60;16.77;;;;;;;4.33;57.95;102697.97;7389307;19;20010;-63
2022/03/01 05:31:36;;;;;;;30.88;18.67;;;;;;;4.19;57.47;102696.94;7388455;19;20471;-63
2022/03/01 05:34:04;;;;;;;27.85;16.92;;;;;;;4.30;57.88;102700.53;7389689;19;20014;-63
2022/03/01 05:36:33;;;;;;;25.95;16.25;;;;;;;4.37;58.12;102697.16;7387112;19;20019;-63
2022/03/01 05:39:02;;;;;;;26.20;17.20;;;;;;;4.38;57.29;102691.09;7389294;19;20363;-63
2022/03/01 05:41:31;;;;;;;27.70;17.45;;;;;;;4.41;56.93;102683.34;7387180;19;20019;-64
2022/03/01 05:44:02;;;;;;;28.90;16.70;;;;;;;4.42;56.86;102684.22;7387400;19;20014;-64
2022/03/01 05:46:31;;;;;;;28.85;17.10;;;;;;;4.40;56.76;102668.66;7389106;19;20014;-64
2022/03/01 05:49:00;;;;;;;26.88;18.65;;;;;;;4.25;57.35;102671.06;7383683;19;20015;-64
2022/03/01 05:51:29;;;;;;;26.13;16.90;;;;;;;4.22;57.13;102669.28;7383502;19;20313;-64
2022/03/01 05:53:58;;;;;;;28.25;17.40;;;;;;;4.23;57.52;102665.00;7389043;19;20337;-66
2022/03/01 05:56:27;;;;;;;33.88;19.05;;;;;;;4.11;58.07;102674.38;7386319;19;20022;-63
2022/03/01 05:58:56;;;;;;;27.73;18.58;;;;;;;4.11;58.04;102676.06;7387285;19;20026;-64
2022/03/01 06:01:27;;;;;;;26.33;17.65;;;;;;;4.11;58.58;102682.16;7393917;19;20015;-62
2022/03/01 06:03:56;;;;;;;29.00;17.27;;;;;;;4.15;58.75;102675.25;7396393;19;20010;-63
2022/03/01 06:06:25;;;;;;;27.92;17.60;;;;;;;4.07;58.59;102677.75;7395971;19;20049;-64
2022/03/01 06:08:54;;;;;;;27.40;18.25;;;;;;;4.14;58.49;102677.00;7392613;19;20116;-64
2022/03/01 06:11:23;;;;;;;27.08;17.48;;;;;;;4.07;58.85;102675.16;7392991;19;20010;-62
2022/03/01 06:13:52;;;;;;;32.65;19.02;;;;;;;4.15;59.86;102677.84;7396199;19;20119;-64
2022/03/01 06:16:20;;;;;;;28.30;18.13;;;;;;;4.07;60.15;102676.88;7392088;19;20348;-63
2022/03/01 06:18:52;;;;;;;29.63;18.88;;;;;;;4.08;60.58;102669.09;7393928;19;20018;-64
2022/03/01 06:21:21;;;;;;;31.60;19.30;;;;;;;4.05;59.73;102670.81;7396415;19;20017;-64
2022/03/01 06:23:50;;;;;;;31.23;19.40;;;;;;;4.06;60.26;102677.75;7393765;19;20325;-63
2022/03/01 06:26:19;;;;;;;31.83;19.02;;;;;;;3.91;61.09;102674.09;7397292;19;20144;-63
2022/03/01 06:28:48;;;;;;;25.65;18.00;;;;;;;3.98;61.93;102680.22;7391584;19;20018;-62
2022/03/01 06:31:17;;;;;;;29.95;18.85;;;;;;;4.14;60.36;102686.47;7393765;19;20026;-63
2022/03/01 06:33:46;;;;;;;33.35;19.02;;;;;;;4.15;61.19;102683.03;7392641;19;20023;-62
2022/03/01 06:36:18;;;;;;;30.48;19.23;;;;;;;4.00;62.06;102681.13;7392129;19;20010;-65
2022/03/01 06:38:47;;;;;;;29.25;18.65;;;;;;;4.11;61.70;102686.44;7391869;19;20017;-64
2022/03/01 06:41:16;;;;;;;29.00;18.80;;;;;;;4.17;60.94;102694.31;7392771;19;20010;-64
2022/03/01 06:43:45;;;;;;;31.00;18.90;;;;;;;4.14;61.26;102699.44;7397072;19;20082;-64
2022/03/01 06:46:14;;;;;;;29.05;19.48;;;;;;;4.11;60.71;102700.31;7396931;19;20102;-64
2022/03/01 06:48:43;;;;;;;31.17;18.02;;;;;;;4.19;60.82;102702.97;7393203;19;20019;-64
2022/03/01 06:51:12;;;;;;;29.92;18.63;;;;;;;4.20;60.80;102707.34;7394776;19;20371;-64
2022/03/01 06:53:44;;;;;;;31.75;19.67;;;;;;;4.16;61.30;102708.13;7393549;19;20011;-63
2022/03/01 06:56:13;;;;;;;35.95;21.40;;;;;;;4.21;60.81;102713.38;7396808;19;20030;-63
2022/03/01 06:58:42;;;;;;;32.30;19.27;;;;;;;4.18;61.28;102714.22;7393310;19;20015;-65
2022/03/01 07:01:10;;;;;;;31.08;18.67;;;;;;;4.22;61.21;102722.91;7397647;19;20364;-64
2022/03/01 07:03:42;;;;;;;38.00;21.40;;;;;;;4.14;61.76;102720.19;7395987;19;20503;-63
2022/03/01 07:06:11;;;;;;;35.00;20.88;;;;;;;3.99;63.30;102723.47;7398840;19;20635;-63
2022/03/01 07:08:40;;;;;;;34.72;19.90;;;;;;;4.08;62.50;102723.59;7393565;19;20025;-63
2022/03/01 07:11:11;;;;;;;32.63;20.55;;;;;;;4.23;62.02;102728.13;7395727;19;20015;-62
2022/03/01 07:13:40;;;;;;;31.25;19.83;;;;;;;4.29;61.24;102735.97;7395881;19;20018;-63
2022/03/01 07:16:09;;;;;;;34.72;21.63;;;;;;;4.12;61.95;102730.56;7395844;19;20018;-63
2022/03/01 07:18:38;;;;;;;31.25;20.70;;;;;;;4.09;62.64;102732.25;7396563;19;20014;-62
2022/03/01 07:21:07;;;;;;;32.28;21.05;;;;;;;4.18;62.04;102734.09;7397745;19;20018;-63
2022/03/01 07:23:36;;;;;;;32.90;20.60;;;;;;;4.29;61.21;102730.78;7394260;19;20351;-65
2022/03/01 07:26:05;;;;;;;35.05;21.20;;;;;;;4.33;61.05;102735.16;7396059;19;20003;-63
2022/03/01 07:28:37;;;;;;;32.47;21.52;;;;;;;4.41;60.83;102737.00;7395455;19;20442;-62
2022/03/01 07:31:09;;;;;;;36.10;22.73;;;;;;;4.37;61.29;102740.41;7394131;19;20077;-63
2022/03/01 07:33:38;;;;;;;36.70;22.38;;;;;;;4.41;61.07;102744.78;7396008;19;20021;-62
2022/03/01 07:36:07;;;;;;;34.60;21.73;;;;;;;4.39;61.20;102747.34;7395761;19;20078;-62
2022/03/01 07:38:36;;;;;;;33.67;20.33;;;;;;;4.36;60.42;102747.31;7392783;19;20048;-63
2022/03/01 07:41:05;;;;;;;32.42;19.77;;;;;;;4.40;60.26;102758.59;7393474;19;20015;-64
2022/03/01 07:43:36;;;;;;;32.78;20.63;;;;;;;4.51;60.26;102759.59;7394843;19;20015;-62
2022/03/01 07:46:07;;;;;;;35.42;21.88;;;;;;;4.54;60.70;102748.38;7396230;19;20006;-62
2022/03/01 07:48:36;;;;;;;30.85;19.63;;;;;;;4.56;60.33;102757.94;7390750;19;20719;-63
2022/03/01 07:51:04;;;;;;;33.88;20.70;;;;;;;4.67;59.65;102766.75;7395772;19;20037;-63
2022/03/01 07:53:33;;;;;;;34.33;20.00;;;;;;;4.43;60.13;102767.31;7393276;19;20439;-63
2022/03/01 07:56:02;;;;;;;33.00;19.92;;;;;;;4.49;59.62;102757.00;7394707;19;20127;-65
2022/03/01 07:58:31;;;;;;;30.13;19.30;;;;;;;4.60;59.13;102764.94;7392746;19;20332;-65
2022/03/01 08:01:03;;;;;;;28.98;19.40;;;;;;;4.64;59.38;102758.03;7391577;19;20018;-63
2022/03/01 08:03:32;;;;;;;33.50;20.65;;;;;;;4.47;59.13;102760.41;7391944;19;20015;-64
2022/03/01 08:06:01;;;;;;;33.67;20.00;;;;;;;4.37;60.02;102753.38;7394143;19;20014;-64
2022/03/01 08:08:30;;;;;;;34.20;20.42;;;;;;;4.42;59.52;102762.09;7391026;19;20019;-63
2022/03/01 08:10:59;;;;;;;30.23;20.85;;;;;;;4.46;60.61;102769.94;7394622;19;20014;-63
2022/03/01 08:13:29;;;;;;;32.22;20.63;;;;;;;4.52;59.55;102761.34;7393891;19;20316;-63
2022/03/01 08:15:58;;;;;;;31.90;19.17;;;;;;;4.48;59.56;102760.47;7396451;19;20075;-62
2022/03/01 08:18:30;;;;;;;33.63;20.30;;;;;;;4.43;59.16;102751.72;7391677;19;20019;-63
2022/03/01 08:20:59;;;;;;;30.60;19.08;;;;;;;4.54;59.01;102762.22;7395552;19;20042;-64
2022/03/01 08:23:29;;;;;;;35.22;20.83;;;;;;;4.65;59.04;102752.84;7393514;19;20525;-64
2022/03/01 08:25:58;;;;;;;29.60;17.98;;;;;;;4.74;58.44;102753.81;7397538;19;20014;-63
2022/03/01 08:28:27;;;;;;;33.40;19.90;;;;;;;4.56;59.05;102768.34;7394571;19;20011;-63
2022/03/01 08:30:56;;;;;;;35.55;21.20;;;;;;;4.54;59.07;102767.44;7395378;19;20018;-64
2022/03/01 08:33:25;;;;;;;32.97;19.50;;;;;;;4.55;59.59;102763.97;7394705;19;20006;-64
2022/03/01 08:35:57;;;;;;;29.30;19.70;;;;;;;4.76;59.11;102759.91;7395735;19;20340;-64
2022/03/01 08:38:27;;;;;;;35.67;20.80;;;;;;;4.83;58.87;102749.59;7398560;19;20010;-64
2022/03/01 08:40:56;;;;;;;36.15;21.00;;;;;;;4.74;58.54;102751.22;7398016;19;20025;-63
2022/03/01 08:43:26;;;;;;;27.63;18.80;;;;;;;4.72;58.63;102771.13;7393546;19;20021;-63
2022/03/01 08:45:55;;;;;;;29.95;19.00;;;;;;;4.94;58.76;102762.72;7391989;19;20450;-64
2022/03/01 08:48:25;;;;;;;31.23;17.80;;;;;;;4.87;58.32;102765.22;7391868;19;20734;-63
2022/03/01 08:50:56;;;;;;;26.65;17.73;;;;;;;4.95;58.59;102772.22;7395594;19;20082;-63
2022/03/01 08:53:25;;;;;;;30.08;18.63;;;;;;;5.14;57.54;102772.44;7390824;19;20609;-63
2022/03/01 08:55:54;;;;;;;27.02;17.42;;;;;;;5.29;56.68;102775.19;7393438;19;20041;-63
2022/03/01 08:58:23;;;;;;;27.77;16.85;;;;;;;5.36;56.96;102768.31;7389069;19;20022;-63
2022/03/01 09:00:52;;;;;;;25.35;16.63;;;;;;;5.13;56.60;102765.47;7391268;19;20095;-65
2022/03/01 09:03:23;;;;;;;25.00;16.77;;;;;;;5.16;57.24;102769.00;7390495;19;20018;-65
2022/03/01 09:05:52;;;;;;;24.52;16.67;;;;;;;5.22;56.75;102767.31;7392864;19;20006;-63
2022/03/01 09:08:23;;;;;;;28.67;16.70;;;;;;;5.43;56.19;102777.03;7391852;19;20018;-63
2022/03/01 09:10:52;;;;;;;38.20;20.35;;;;;;;5.51;56.39;102770.16;7392627;19;20021;-63
2022/03/01 09:13:21;;;;;;;26.65;17.65;;;;;;;5.57;57.23;102779.75;7392734;19;20014;-65
2022/03/01 09:15:50;;;;;;;29.95;17.15;;;;;;;5.66;55.93;102783.31;7394896;19;20010;-63
2022/03/01 09:18:19;;;;;;;22.17;15.38;;;;;;;5.65;56.03;102780.69;7390299;19;20022;-62
2022/03/01 09:20:47;;;;;;;22.23;15.93;;;;;;;5.59;55.20;102778.91;7395443;19;20035;-63
2022/03/01 09:23:17;;;;;;;35.38;16.40;;;;;;;5.66;56.19;102782.41;7397159;19;20018;-63
2022/03/01 09:25:48;;;;;;;23.00;15.95;;;;;;;5.77;55.81;102777.31;7394491;19;20014;-64
2022/03/01 09:28:17;;;;;;;23.50;15.48;;;;;;;5.97;55.29;102793.94;7393813;19;20044;-64
2022/03/01 09:30:46;;;;;;;24.67;15.73;;;;;;;5.97;54.86;102793.94;7391308;19;20123;-64
2022/03/01 09:33:16;;;;;;;21.65;14.68;;;;;;;6.10;55.30;102788.84;7392154;19;20014;-62
2022/03/01 09:35:46;;;;;;;22.92;15.35;;;;;;;6.08;54.06;102794.03;7401119;19;20025;-64
2022/03/01 09:38:15;;;;;;;24.52;15.63;;;;;;;6.13;53.82;102792.34;7393968;19;20018;-62
2022/03/01 09:40:51;;;;;;;24.05;15.88;;;;;;;6.01;54.15;102787.91;7399956;19;20022;-63
2022/03/01 09:43:20;;;;;;;23.38;15.02;;;;;;;6.05;54.16;102789.69;7396620;19;20014;-63
2022/03/01 09:45:49;;;;;;;27.05;16.73;;;;;;;6.06;53.72;102783.63;7400268;19;20025;-62
2022/03/01 09:48:18;;;;;;;23.30;15.50;;;;;;;6.13;54.23;102783.66;7395024;19;20015;-63
2022/03/01 09:50:48;;;;;;;25.40;15.85;;;;;;;6.12;54.36;102785.41;7398652;19;20049;-62
2022/03/01 09:53:17;;;;;;;28.00;16.38;;;;;;;6.07;54.64;102784.47;7396232;19;20025;-63
2022/03/01 09:55:48;;;;;;;24.05;15.75;;;;;;;6.16;53.97;102786.25;7397974;19;20022;-63
2022/03/01 09:58:20;;;;;;;25.05;16.38;;;;;;;5.98;53.93;102785.28;7396822;19;20040;-62
2022/03/01 10:00:49;;;;;;;22.10;14.80;;;;;;;6.14;54.16;102780.19;7397727;19;20486;-64
2022/03/01 10:03:20;;;;;;;22.45;15.15;;;;;;;6.22;54.20;102776.78;7396867;19;20011;-63
2022/03/01 10:05:50;;;;;;;23.45;15.75;;;;;;;6.27;54.09;102782.00;7397565;19;20010;-62
2022/03/01 10:08:21;;;;;;;22.42;15.55;;;;;;;6.32;53.79;102785.50;7396559;19;20036;-63
2022/03/01 10:10:52;;;;;;;24.73;16.08;;;;;;;6.30;53.93;102787.22;7398165;19;20025;-63
2022/03/01 10:13:27;;;;;;;27.05;15.73;;;;;;;6.41;53.19;102790.75;7396341;19;20023;-63
2022/03/01 10:16:04;;;;;;;23.25;15.18;;;;;;;6.66;52.93;102792.59;7396041;19;20021;-63
2022/03/01 10:18:35;;;;;;;20.23;14.13;;;;;;;6.84;52.46;102781.38;7393764;19;20011;-63
2022/03/01 10:21:05;;;;;;;24.83;16.08;;;;;;;6.85;52.41;102780.50;7395037;19;20030;-61
2022/03/01 10:23:36;;;;;;;23.42;15.35;;;;;;;7.08;52.82;102778.81;7397564;19;20451;-63
2022/03/01 10:26:15;;;;;;;24.38;16.10;;;;;;;7.30;50.97;102786.69;7395527;19;20018;-62
2022/03/01 10:28:48;;;;;;;21.98;14.95;;;;;;;7.39;51.57;102773.66;7393591;19;20018;-64
2022/03/01 10:31:17;;;;;;;;;;;;;;;7.53;50.98;102775.41;7398072;19;20018;-63
2022/03/01 10:33:57;;;;;;;24.95;15.40;;;;;;;7.51;50.45;102780.63;7396368;19;19919;-63
2022/03/01 10:36:27;;;;;;;22.42;14.98;;;;;;;7.57;50.98;102777.13;7396502;19;20368;-64
2022/03/01 10:38:58;;;;;;;30.00;16.05;;;;;;;7.67;50.82;102781.47;7396275;19;20015;-63
2022/03/01 10:41:29;;;;;;;27.00;15.93;;;;;;;7.75;51.55;102786.69;7396648;19;20363;-64
2022/03/01 10:44:03;;;;;;;24.33;15.93;;;;;;;7.80;50.76;102777.13;7395368;19;20015;-65
2022/03/01 10:46:39;;;;;;;21.30;15.38;;;;;;;7.57;50.21;102783.22;7396094;19;20014;-65
2022/03/01 10:49:10;;;;;;;25.33;15.25;;;;;;;7.68;50.10;102782.34;7392109;19;20019;-66
2022/03/01 10:51:50;;;;;;;24.02;15.68;;;;;;;7.74;50.59;102780.59;7396926;19;20048;-62
2022/03/01 10:54:29;;;;;;;22.13;15.38;;;;;;;7.75;51.04;102784.06;7398335;19;20017;-62
2022/03/01 10:56:59;;;;;;;24.45;16.20;;;;;;;7.85;50.47;102782.31;7397293;19;20015;-65
2022/03/01 10:59:36;;;;;;;25.63;15.88;;;;;;;7.93;49.39;102778.81;7394562;19;20006;-63
2022/03/01 11:02:07;;;;;;;20.35;14.60;;;;;;;8.06;49.87;102769.22;7398221;19;20475;-65
2022/03/01 11:04:36;;;;;;;23.40;15.20;;;;;;;8.06;50.07;102769.22;7393796;19;20014;-65
2022/03/01 11:07:08;;;;;;;23.67;15.98;;;;;;;8.17;49.75;102761.38;7394058;19;20058;-63
2022/03/01 11:09:37;;;;;;;26.13;16.45;;;;;;;8.21;49.48;102764.84;7394568;19;20011;-64
2022/03/01 11:12:08;;;;;;;22.35;16.17;;;;;;;8.20;49.68;102773.56;7398343;19;20014;-64
2022/03/01 11:15:04;;;;;;;21.25;15.35;;;;;;;8.23;49.55;102778.78;7398430;19;20070;-64
2022/03/01 11:17:45;;;;;;;20.77;14.73;;;;;;;8.27;49.98;102775.28;7396613;19;20017;-64
2022/03/01 11:20:17;;;;;;;24.45;15.43;;;;;;;8.28;49.26;102770.06;7395045;19;20006;-61
2022/03/01 11:22:48;;;;;;;24.27;15.07;;;;;;;8.53;48.50;102776.97;7398000;19;20077;-66
2022/03/01 11:25:19;;;;;;;28.40;16.63;;;;;;;8.61;49.00;102769.94;7398146;19;20279;-64
2022/03/01 11:27:51;;;;;;;23.38;16.02;;;;;;;8.44;49.31;102778.75;7397123;19;20014;-64
2022/03/01 11:30:30;;;;;;;20.73;15.25;;;;;;;8.45;48.55;102777.00;7394825;19;20028;-64
2022/03/01 11:33:00;;;;;;;21.05;15.45;;;;;;;8.64;48.80;102776.03;7393804;19;20040;-65